Time;durP1;ratioP1;P1;durP2;ratioP2;P2;SDS_P1;SDS_P2;PMS_P1;PMS_P2;Temp;Humidity;BMP_temperature;BMP_pressure;BME280_temperature;BME280_humidity;BME280_pressure;Samples;Min_cycle;Max_cycle;Signal;HPM_P1;HPM_P2
2024/03/04 00:00:50;;;;;;;4.57;3.78;;;;;;;17.45;57.51;100473.19;10445746;28;20032;-61
2024/03/04 00:05:50;;;;;;;5.40;3.92;;;;;;;17.44;58.03;100471.59;10445677;28;20039;-61
2024/03/04 00:10:51;;;;;;;5.43;3.80;;;;;;;17.44;58.74;100474.28;10446051;28;20052;-61
2024/03/04 00:15:52;;;;;;;7.97;4.38;;;;;;;17.44;57.96;100481.53;10446805;28;20287;-61
2024/03/04 00:20:52;;;;;;;5.30;3.90;;;;;;;17.43;58.58;100496.03;10445177;28;20393;-61
2024/03/04 00:25:53;;;;;;;7.47;4.33;;;;;;;17.42;58.31;100497.13;10446497;28;20021;-61
2024/03/04 00:30:54;;;;;;;5.43;4.00;;;;;;;17.43;57.05;100501.38;10427385;28;20294;-61
2024/03/04 00:35:55;;;;;;;6.43;4.70;;;;;;;17.42;57.93;100503.28;10444434;28;20766;-61
2024/03/04 00:40:55;;;;;;;5.57;4.05;;;;;;;17.44;57.53;100511.00;10445177;28;20032;-61
2024/03/04 00:45:55;;;;;;;6.87;4.47;;;;;;;17.45;57.95;100518.75;10427269;28;20030;-61
2024/03/04 00:50:57;;;;;;;6.87;4.33;;;;;;;17.44;57.26;100529.78;10445258;28;20271;-61
2024/03/04 00:55:58;;;;;;;6.00;4.00;;;;;;;17.45;57.57;100528.69;10444876;28;20651;-61
2024/03/04 01:00:58;;;;;;;5.95;4.43;;;;;;;17.43;56.55;100538.91;10443121;28;20054;-61
2024/03/04 01:05:59;;;;;;;7.07;4.67;;;;;;;17.43;57.76;100545.06;10444684;28;20028;-61
2024/03/04 01:10:59;;;;;;;5.60;4.43;;;;;;;17.44;57.05;100540.50;10442346;28;20295;-61
2024/03/04 01:16:00;;;;;;;5.30;4.17;;;;;;;17.43;58.01;100553.09;10442925;28;20016;-61
2024/03/04 01:21:02;;;;;;;6.07;3.83;;;;;;;17.43;57.50;100560.34;10442484;28;20275;-61
2024/03/04 01:26:02;;;;;;;6.38;4.65;;;;;;;17.48;56.62;100554.91;10426148;28;20295;-61
2024/03/04 01:31:03;;;;;;;5.30;3.80;;;;;;;17.44;57.11;100557.38;10441288;28;20024;-62
2024/03/04 01:36:04;;;;;;;5.75;3.75;;;;;;;17.43;56.49;100563.03;10443962;28;20024;-61
2024/03/04 01:41:04;;;;;;;4.93;3.42;;;;;;;17.40;56.67;100572.41;10441958;28;20020;-61
2024/03/04 01:46:05;;;;;;;5.00;3.38;;;;;;;17.40;57.17;100585.03;10442097;28;20087;-62
2024/03/04 01:51:06;;;;;;;4.45;3.28;;;;;;;17.42;56.84;100589.03;10441557;28;20037;-62
2024/03/04 01:56:07;;;;;;;3.95;3.33;;;;;;;17.44;55.83;100592.22;10429186;28;20017;-61
2024/03/04 02:01:08;;;;;;;3.80;3.22;;;;;;;17.45;56.66;100601.06;10443119;28;20044;-61
2024/03/04 02:06:08;;;;;;;6.57;3.28;;;;;;;17.42;56.18;100607.00;10441725;28;20017;-61
2024/03/04 02:11:09;;;;;;;5.57;3.67;;;;;;;17.38;55.99;100606.75;10440978;28;20049;-61
2024/03/04 02:16:10;;;;;;;6.93;3.83;;;;;;;17.42;55.90;100623.09;10441487;28;20286;-61
2024/03/04 02:21:11;;;;;;;4.95;3.17;;;;;;;17.39;56.67;100629.81;10442081;28;20024;-62
2024/03/04 02:26:11;;;;;;;5.85;3.50;;;;;;;17.36;56.54;100629.59;10441481;28;20043;-61
2024/03/04 02:31:13;;;;;;;5.00;3.70;;;;;;;17.36;56.49;100627.69;10427536;28;20395;-61
2024/03/04 02:36:14;;;;;;;5.47;3.38;;;;;;;17.39;56.37;100637.84;10441353;28;20354;-61
2024/03/04 02:41:14;;;;;;;5.20;3.28;;;;;;;17.42;56.82;100642.66;10444410;28;20104;-61
2024/03/04 02:46:16;;;;;;;4.77;3.70;;;;;;;17.43;56.14;100651.47;10448753;28;20428;-61
2024/03/04 02:51:16;;;;;;;4.97;3.60;;;;;;;17.42;55.96;100655.25;10448076;28;20673;-61
2024/03/04 02:56:17;;;;;;;7.00;4.30;;;;;;;17.42;56.90;100655.25;10448080;28;20032;-62
2024/03/04 03:01:17;;;;;;;4.95;3.28;;;;;;;17.38;55.98;100660.38;10449099;28;20279;-61
2024/03/04 03:06:18;;;;;;;5.20;3.60;;;;;;;17.42;56.45;100663.28;10447784;28;20029;-61
2024/03/04 03:11:18;;;;;;;5.00;3.35;;;;;;;17.44;56.94;100666.47;10447184;28;20037;-61
2024/03/04 03:16:22;;;;;;;5.68;3.58;;;;;;;17.43;55.65;100670.25;10448109;28;20021;-62
2024/03/04 03:21:23;;;;;;;5.55;3.40;;;;;;;17.39;56.78;100687.97;10446904;28;20416;-61
2024/03/04 03:26:25;;;;;;;3.70;2.97;;;;;;;17.38;55.77;100681.00;10447122;28;20072;-61
2024/03/04 03:31:26;;;;;;;5.05;3.45;;;;;;;17.39;55.60;100687.97;10447918;28;20028;-61
2024/03/04 03:36:26;;;;;;;3.95;2.90;;;;;;;17.36;55.69;100700.06;10430478;28;20261;-61
2024/03/04 03:41:27;;;;;;;3.77;2.87;;;;;;;17.35;55.90;100711.88;10446374;28;20495;-61
2024/03/04 03:46:27;;;;;;;4.32;2.65;;;;;;;17.40;55.68;100719.84;10446475;28;20321;-61
2024/03/04 03:51:27;;;;;;;3.40;2.63;;;;;;;17.36;56.11;100716.16;10446510;28;20024;-62
2024/03/04 03:56:28;;;;;;;5.03;2.60;;;;;;;17.39;55.76;100718.25;10447113;28;20483;-62
2024/03/04 04:01:28;;;;;;;5.07;3.03;;;;;;;17.40;56.20;100716.34;10446838;28;20021;-61
2024/03/04 04:06:28;;;;;;;4.33;3.03;;;;;;;17.38;56.18;100715.84;10447493;28;20321;-61
2024/03/04 04:11:29;;;;;;;4.20;2.58;;;;;;;17.35;55.08;100721.78;10428021;28;20304;-61
2024/03/04 04:16:29;;;;;;;3.05;2.40;;;;;;;17.38;55.23;100726.56;10446862;28;20021;-61
2024/03/04 04:21:29;;;;;;;3.47;2.40;;;;;;;17.38;55.06;100721.22;10427982;28;20032;-61
2024/03/04 04:26:31;;;;;;;3.85;2.63;;;;;;;17.39;55.65;100730.84;10446116;28;20323;-61
2024/03/04 04:31:31;;;;;;;3.58;2.58;;;;;;;17.41;56.78;100734.88;10445434;28;20032;-63
2024/03/04 04:36:32;;;;;;;3.28;2.58;;;;;;;17.46;56.79;100732.09;10445411;28;20530;-64
2024/03/04 04:41:33;;;;;;;4.30;2.63;;;;;;;17.52;56.75;100730.16;10443062;28;20060;-61
2024/03/04 04:46:34;;;;;;;4.70;2.58;;;;;;;17.51;55.78;100744.63;10444804;28;20067;-62
2024/03/04 04:51:34;;;;;;;4.27;2.47;;;;;;;17.50;56.89;100737.69;10442575;28;20136;-62
2024/03/04 04:56:35;;;;;;;5.00;2.30;;;;;;;17.44;56.71;100758.41;10446830;28;20279;-62
2024/03/04 05:01:35;;;;;;;3.00;2.28;;;;;;;17.42;56.88;100771.31;10445871;28;20056;-61
2024/03/04 05:06:36;;;;;;;3.35;2.35;;;;;;;17.37;55.86;100765.19;10444727;28;20189;-61
2024/03/04 05:11:37;;;;;;;3.03;2.13;;;;;;;17.38;56.47;100769.47;10444221;28;20078;-61
2024/03/04 05:16:37;;;;;;;4.63;2.58;;;;;;;17.39;55.23;100782.56;10443157;28;20653;-61
2024/03/04 05:21:37;;;;;;;4.43;2.30;;;;;;;17.37;56.29;100792.78;10442518;28;20476;-61
2024/03/04 05:26:38;;;;;;;2.90;1.90;;;;;;;17.36;56.89;100801.13;10442498;28;20476;-61
2024/03/04 05:31:51;;;;;;;3.38;1.77;;;;;;;17.37;55.02;100816.13;10443084;28;20283;-61
2024/03/04 05:36:51;;;;;;;3.30;2.00;;;;;;;17.35;56.24;100811.03;10432278;28;20049;-61
2024/03/04 05:41:52;;;;;;;4.13;2.17;;;;;;;17.34;55.78;100825.53;10441880;28;20048;-61
2024/03/04 05:46:52;;;;;;;4.38;1.95;;;;;;;17.36;54.93;100831.41;10443464;28;20488;-65
2024/03/04 05:51:52;;;;;;;2.92;1.85;;;;;;;17.36;56.02;100836.75;10443105;28;20025;-62
2024/03/04 05:56:53;;;;;;;4.03;1.63;;;;;;;17.37;55.81;100838.34;10443544;28;20017;-61
2024/03/04 06:01:53;;;;;;;2.83;1.80;;;;;;;17.39;55.66;100849.59;10442067;28;20290;-60
2024/03/04 06:06:53;;;;;;;3.92;1.83;;;;;;;17.43;55.33;100858.66;10442621;28;20481;-62
2024/03/04 06:11:54;;;;;;;8.37;1.80;;;;;;;17.49;56.27;100862.09;10440242;28;20049;-61
2024/03/04 06:16:54;;;;;;;7.40;2.30;;;;;;;17.56;56.38;100864.44;10449765;28;20283;-62
2024/03/04 06:21:55;;;;;;;4.43;2.13;;;;;;;17.57;56.64;100876.75;10453424;28;20266;-61
2024/03/04 06:26:55;;;;;;;4.78;1.83;;;;;;;17.51;56.13;100870.63;10453679;28;20329;-61
2024/03/04 06:31:56;;;;;;;4.37;1.90;;;;;;;17.49;55.92;100880.84;10453264;28;20020;-60
2024/03/04 06:36:58;;;;;;;13.18;2.53;;;;;;;17.41;57.16;100884.97;10451758;28;20785;-62
2024/03/04 06:41:58;;;;;;;20.65;3.50;;;;;;;17.29;57.70;100889.09;10452702;28;20036;-62
2024/03/04 06:46:58;;;;;;;7.05;2.38;;;;;;;17.39;56.48;100879.06;10451458;28;20032;-62
2024/03/04 06:51:59;;;;;;;12.47;4.50;;;;;;;17.32;57.51;100889.34;10451127;28;20460;-63
2024/03/04 06:56:59;;;;;;;15.07;3.53;;;;;;;17.31;58.71;100878.91;10452020;28;20280;-61
2024/03/04 07:01:59;;;;;;;18.53;3.77;;;;;;;17.42;57.34;100894.59;10448490;28;20717;-62
2024/03/04 07:07:00;;;;;;;21.03;5.30;;;;;;;17.49;56.78;100894.25;10450972;28;20299;-63
2024/03/04 07:12:00;;;;;;;15.35;4.38;;;;;;;17.52;58.66;100905.22;10451859;28;20333;-62
2024/03/04 07:17:00;;;;;;;14.07;4.03;;;;;;;17.48;57.81;100914.91;10448778;28;20466;-63
2024/03/04 07:22:01;;;;;;;18.67;4.67;;;;;;;17.46;57.97;100914.41;10448369;28;20291;-63
2024/03/04 07:27:01;;;;;;;13.48;3.72;;;;;;;17.40;57.61;100910.16;10448643;28;20287;-63
2024/03/04 07:32:01;;;;;;;14.80;2.90;;;;;;;17.38;57.51;100895.44;10448241;28;20027;-62
2024/03/04 07:37:02;;;;;;;9.43;3.33;;;;;;;17.39;58.28;100905.88;10450114;28;20047;-63
2024/03/04 07:42:02;;;;;;;9.32;2.67;;;;;;;17.35;57.19;100896.81;10447674;28;20282;-62
2024/03/04 07:47:03;;;;;;;16.08;3.67;;;;;;;17.28;57.26;100907.03;10447155;28;20057;-62
2024/03/04 07:52:03;;;;;;;7.35;2.80;;;;;;;17.29;57.25;100905.19;10447825;28;20040;-63
2024/03/04 07:57:04;;;;;;;12.73;3.63;;;;;;;17.26;58.12;100898.50;10449136;28;20033;-62
2024/03/04 08:02:07;;;;;;;12.90;3.03;;;;;;;17.25;56.57;100902.25;10449542;28;20029;-61
2024/03/04 08:07:08;;;;;;;10.65;3.40;;;;;;;17.26;57.89;100906.53;10449270;28;20036;-62
2024/03/04 08:12:08;;;;;;;10.23;2.63;;;;;;;17.21;56.79;100911.94;10449469;28;20392;-62
2024/03/04 08:17:10;;;;;;;11.93;2.85;;;;;;;17.13;56.52;100921.38;10447714;28;20313;-62
2024/03/04 08:22:10;;;;;;;13.52;2.42;;;;;;;17.20;56.62;100911.16;10447845;28;20033;-61
2024/03/04 08:27:11;;;;;;;5.50;2.27;;;;;;;17.14;57.40;100920.28;10448106;28;20013;-62
2024/03/04 08:32:11;;;;;;;15.33;3.50;;;;;;;17.08;58.28;100926.78;10448144;28;20299;-63
2024/03/04 08:37:14;;;;;;;7.77;2.13;;;;;;;17.06;58.34;100928.16;10448489;28;20282;-62
2024/03/04 08:42:15;;;;;;;12.63;2.78;;;;;;;17.08;56.80;100942.88;10448074;28;20271;-63
2024/03/04 08:47:15;;;;;;;9.23;2.50;;;;;;;17.08;56.79;100948.22;10445338;28;20033;-62
2024/03/04 08:52:15;;;;;;;9.37;2.73;;;;;;;17.08;58.35;100945.53;10447350;28;20267;-64
2024/03/04 08:57:16;;;;;;;8.57;2.73;;;;;;;17.10;58.43;100951.41;10445994;28;20730;-63
2024/03/04 09:02:17;;;;;;;6.00;2.05;;;;;;;17.14;58.34;100951.66;10445368;28;20286;-63
2024/03/04 09:07:17;;;;;;;6.60;1.90;;;;;;;17.15;58.53;100939.84;10445877;28;20025;-63
2024/03/04 09:12:17;;;;;;;7.82;1.80;;;;;;;17.17;58.60;100951.13;10445642;28;20084;-63
2024/03/04 09:17:18;;;;;;;6.90;2.10;;;;;;;17.16;59.50;100954.84;10442293;28;20048;-61
2024/03/04 09:22:18;;;;;;;12.73;2.10;;;;;;;17.18;57.95;100956.19;10446265;28;20072;-64
2024/03/04 09:27:18;;;;;;;10.17;2.60;;;;;;;17.24;58.45;100962.28;10445019;28;20366;-63
2024/03/04 09:32:19;;;;;;;8.02;2.55;;;;;;;17.31;57.97;100951.25;10448016;28;20379;-64
2024/03/04 09:37:19;;;;;;;6.50;2.03;;;;;;;17.39;57.19;100959.47;10445952;28;20408;-65
2024/03/04 09:42:20;;;;;;;8.60;2.10;;;;;;;17.39;57.55;100964.84;10444133;28;20288;-64
2024/03/04 09:47:20;;;;;;;8.52;1.98;;;;;;;17.43;57.59;100967.78;10444210;28;20291;-64
2024/03/04 09:52:20;;;;;;;10.68;1.50;;;;;;;17.44;56.55;100970.16;10444230;28;20020;-64
2024/03/04 09:57:21;;;;;;;6.50;1.63;;;;;;;17.51;57.20;100972.50;10444315;28;20032;-64
2024/03/04 10:02:21;;;;;;;4.93;2.13;;;;;;;17.50;57.42;100971.72;10437868;28;20464;-64
2024/03/04 10:07:23;;;;;;;7.75;1.95;;;;;;;17.51;56.58;100967.16;10445790;28;20498;-64
2024/03/04 10:12:24;;;;;;;7.03;2.22;;;;;;;17.51;57.75;100967.16;10418802;28;20053;-64
2024/03/04 10:17:24;;;;;;;4.75;1.20;;;;;;;17.49;56.86;100962.06;10439905;28;20029;-64
2024/03/04 10:22:26;;;;;;;5.78;2.33;;;;;;;17.47;56.85;100966.91;10444783;28;20472;-64
2024/03/04 10:27:26;;;;;;;4.63;1.08;;;;;;;17.49;56.73;100975.47;10427231;28;20025;-65
2024/03/04 10:32:27;;;;;;;4.20;1.00;;;;;;;17.51;56.23;100983.22;10443498;28;20040;-64
2024/03/04 10:37:29;;;;;;;5.00;1.40;;;;;;;17.51;56.52;100997.44;10445161;28;20279;-64
2024/03/04 10:42:29;;;;;;;3.38;0.85;;;;;;;17.49;56.75;100993.44;10445283;28;20271;-66
2024/03/04 10:47:41;;;;;;;9.02;2.67;;;;;;;17.52;56.68;101008.97;10443009;28;20461;-65
2024/03/04 10:52:43;;;;;;;6.93;0.95;;;;;;;17.50;56.47;100997.72;10444998;28;20179;-63
2024/03/04 10:57:45;;;;;;;5.38;1.45;;;;;;;17.47;57.34;101001.78;10427578;28;20169;-63
2024/03/04 11:03:03;;;;;;;5.82;1.65;;;;;;;17.49;56.44;100996.94;10427402;28;20182;-62
2024/03/04 11:08:15;;;;;;;11.07;1.85;;;;;;;17.50;57.92;100985.13;10448622;28;20446;-60
2024/03/04 11:13:25;;;;;;;6.80;1.10;;;;;;;17.43;57.70;100994.59;10446230;28;20132;-65
2024/03/04 11:18:51;;;;;;;3.38;1.35;;;;;;;17.43;57.75;100990.03;10444853;28;20020;-65
2024/03/04 11:23:51;;;;;;;2.67;0.80;;;;;;;17.43;57.68;100987.34;10422704;28;20045;-66
2024/03/04 11:28:53;;;;;;;5.27;1.80;;;;;;;17.43;57.66;100990.03;10445003;28;20047;-63
2024/03/04 11:34:01;;;;;;;10.85;1.92;;;;;;;17.41;57.03;100989.50;10439782;28;20275;-65
2024/03/04 11:39:13;;;;;;;3.47;1.30;;;;;;;17.42;58.17;100993.78;10448130;28;20021;-64
2024/03/04 11:44:22;;;;;;;7.13;2.20;;;;;;;17.36;57.76;100994.88;10446318;28;20029;-62
2024/03/04 11:49:30;;;;;;;7.43;1.60;;;;;;;17.37;58.53;100996.50;10447968;28;20121;-64
2024/03/04 11:54:37;;;;;;;5.80;1.30;;;;;;;17.35;58.51;100998.66;10448909;28;20027;-64
2024/03/04 11:59:40;;;;;;;2.75;1.35;;;;;;;17.34;57.77;101007.78;10449394;28;20063;-63
2024/03/04 12:04:40;;;;;;;6.50;1.00;;;;;;;17.29;57.66;101010.50;10439495;28;20072;-63
2024/03/04 12:09:41;;;;;;;4.10;1.10;;;;;;;17.29;58.49;101015.06;10427014;28;20025;-63
2024/03/04 12:14:43;;;;;;;12.18;1.35;;;;;;;17.38;58.08;101011.50;10447582;28;20056;-62
2024/03/04 12:19:53;;;;;;;7.13;1.00;;;;;;;17.33;58.65;101011.53;10444557;28;20147;-62
2024/03/04 12:25:02;;;;;;;13.43;2.00;;;;;;;17.32;59.01;101019.88;10441611;28;20025;-62
2024/03/04 12:30:11;;;;;;;8.43;1.20;;;;;;;17.43;57.93;101018.72;10444514;28;20047;-61
2024/03/04 12:35:32;;;;;;;10.98;2.60;;;;;;;17.51;58.02;101018.09;10442653;28;20484;-62
2024/03/04 12:40:33;;;;;;;6.28;1.38;;;;;;;17.58;57.25;101010.53;10434437;28;20099;-62
2024/03/04 12:45:33;;;;;;;10.10;1.20;;;;;;;17.61;58.24;100996.56;10429382;28;20117;-62
2024/03/04 12:50:34;;;;;;;8.40;1.80;;;;;;;17.67;58.55;100991.97;10429379;28;20677;-63
2024/03/04 12:55:37;;;;;;;5.93;1.07;;;;;;;17.68;57.35;100985.50;10416605;28;20059;-63
2024/03/04 13:00:37;;;;;;;7.95;1.13;;;;;;;17.68;58.17;100977.47;10417924;28;20283;-62
2024/03/04 13:05:38;;;;;;;4.03;1.07;;;;;;;17.68;58.00;100977.47;10447495;28;20025;-62
2024/03/04 13:10:38;;;;;;;8.03;1.43;;;;;;;17.69;57.06;100979.09;10423077;28;20295;-62
2024/03/04 13:15:44;;;;;;;7.50;1.42;;;;;;;17.73;57.15;100985.47;10422499;28;20294;-62
2024/03/04 13:20:44;;;;;;;17.13;1.90;;;;;;;17.67;57.52;100981.25;10445266;28;20656;-63
2024/03/04 13:25:44;;;;;;;13.30;2.13;;;;;;;17.63;58.12;100974.81;10427716;28;20021;-63
2024/03/04 13:30:45;;;;;;;18.63;1.98;;;;;;;17.67;58.36;100974.00;10442186;28;20037;-64
2024/03/04 13:35:45;;;;;;;17.07;3.43;;;;;;;17.66;58.26;100963.56;10442642;28;20036;-64
2024/03/04 13:40:45;;;;;;;10.57;1.63;;;;;;;17.75;58.60;100962.66;10446127;28;20053;-64
2024/03/04 13:45:46;;;;;;;13.27;2.90;;;;;;;17.79;57.91;100966.38;10440135;28;20025;-65
2024/03/04 13:50:46;;;;;;;8.80;1.70;;;;;;;17.75;57.92;100970.69;10442180;28;20036;-61
2024/03/04 13:55:46;;;;;;;6.30;1.53;;;;;;;17.69;58.68;100971.84;10442181;28;20837;-63
2024/03/04 14:00:47;;;;;;;7.90;1.50;;;;;;;17.59;58.17;100971.13;10424463;28;20306;-64
2024/03/04 14:05:47;;;;;;;6.03;1.33;;;;;;;17.65;57.76;100962.75;10425573;28;20412;-65
2024/03/04 14:10:47;;;;;;;14.63;3.80;;;;;;;17.61;57.47;100956.34;10443948;28;20088;-64
2024/03/04 14:15:50;;;;;;;9.80;2.63;;;;;;;17.60;58.18;100961.97;10443194;28;20291;-64
2024/03/04 14:20:51;;;;;;;9.20;1.30;;;;;;;17.66;58.26;100953.63;10442738;28;20033;-63
2024/03/04 14:25:51;;;;;;;5.47;1.80;;;;;;;17.72;57.51;100955.19;10444862;28;20032;-63
2024/03/04 14:30:52;;;;;;;8.67;1.67;;;;;;;17.69;57.51;100961.13;10443653;28;20275;-63
2024/03/04 14:35:52;;;;;;;9.43;1.55;;;;;;;17.68;58.45;100962.19;10441685;28;20689;-63
2024/03/04 14:40:53;;;;;;;10.68;2.22;;;;;;;17.64;57.22;100950.44;10450190;28;20087;-61
2024/03/04 14:45:53;;;;;;;15.23;2.30;;;;;;;17.63;59.24;100956.84;10451546;28;20525;-62
2024/03/04 14:50:53;;;;;;;14.65;1.80;;;;;;;17.59;59.50;100949.66;10452796;28;20359;-65
2024/03/04 14:55:54;;;;;;;14.10;2.57;;;;;;;17.64;60.04;100954.97;10451499;28;20075;-67
2024/03/04 15:00:54;;;;;;;8.02;1.98;;;;;;;17.73;59.09;100953.31;10452552;28;20380;-65
2024/03/04 15:05:54;;;;;;;13.23;3.15;;;;;;;17.71;59.20;100963.53;10451885;28;20025;-64
2024/03/04 15:10:55;;;;;;;7.03;1.90;;;;;;;17.65;58.60;100965.44;10449118;28;20624;-63
2024/03/04 15:15:55;;;;;;;13.95;2.45;;;;;;;17.54;58.82;100958.56;10450714;28;20283;-64
2024/03/04 15:20:56;;;;;;;22.45;2.65;;;;;;;17.51;59.23;100959.09;10449566;28;20036;-64
2024/03/04 15:25:56;;;;;;;49.97;6.50;;;;;;;17.64;57.97;100958.47;10451666;28;20270;-62
2024/03/04 15:30:56;;;;;;;43.78;4.93;;;;;;;17.65;59.06;100953.91;10448903;28;20029;-64
2024/03/04 15:36:01;;;;;;;54.13;6.37;;;;;;;17.61;59.10;100964.38;10448874;28;20476;-60
2024/03/04 15:41:02;;;;;;;28.45;4.55;;;;;;;17.56;59.63;100947.56;10447904;28;20279;-61
2024/03/04 15:46:02;;;;;;;42.13;5.28;;;;;;;17.53;59.40;100954.28;10450220;28;20021;-59
2024/03/04 15:51:05;;;;;;;31.75;5.72;;;;;;;17.50;59.01;100961.00;10446299;28;20083;-62
2024/03/04 15:56:06;;;;;;;19.13;3.50;;;;;;;17.56;59.81;100961.75;10449713;28;20051;-62
2024/03/04 16:01:07;;;;;;;30.40;5.45;;;;;;;17.60;59.70;100957.41;10449133;28;20646;-61
2024/03/04 16:06:08;;;;;;;37.78;5.32;;;;;;;17.56;59.02;100956.41;10451106;28;20029;-65
2024/03/04 16:11:08;;;;;;;39.28;5.60;;;;;;;17.53;59.05;100957.78;10432826;28;20053;-64
2024/03/04 16:16:08;;;;;;;45.90;6.05;;;;;;;17.50;59.18;100952.94;10450208;28;20028;-61
2024/03/04 16:21:11;;;;;;;47.00;6.63;;;;;;;17.54;59.34;100954.00;10448974;28;20143;-61
2024/03/04 16:26:11;;;;;;;39.90;6.57;;;;;;;17.63;58.65;100962.22;10445279;28;20345;-61
2024/03/04 16:31:12;;;;;;;39.30;6.20;;;;;;;17.65;58.40;100957.38;10447123;28;20025;-61
2024/03/04 16:36:14;;;;;;;23.30;4.70;;;;;;;17.64;58.29;100966.53;10447783;28;20294;-62
2024/03/04 16:41:21;;;;;;;18.98;5.65;;;;;;;17.95;65.40;100980.44;10444818;28;20025;-63
2024/03/04 16:46:22;;;;;;;14.77;3.95;;;;;;;18.12;63.28;100980.00;10449038;28;20029;-65
2024/03/04 16:51:22;;;;;;;12.20;4.53;;;;;;;18.17;62.08;100990.66;10446104;28;20361;-61
2024/03/04 16:56:22;;;;;;;25.03;4.83;;;;;;;18.11;62.22;100987.25;10440883;28;20282;-65
2024/03/04 17:01:23;;;;;;;25.35;4.47;;;;;;;18.07;62.77;100985.41;10447116;28;20298;-64
2024/03/04 17:06:24;;;;;;;15.30;3.77;;;;;;;17.96;62.49;100979.34;10444169;28;20112;-62
2024/03/04 17:11:25;;;;;;;31.35;4.50;;;;;;;18.02;61.93;100988.16;10446051;28;20132;-61
2024/03/04 17:16:25;;;;;;;13.68;3.35;;;;;;;18.04;62.13;100989.47;10440319;28;20027;-61
2024/03/04 17:21:26;;;;;;;15.63;2.67;;;;;;;18.12;61.57;100993.41;10447157;28;20021;-60
2024/03/04 17:26:27;;;;;;;13.10;3.23;;;;;;;18.18;61.54;100999.53;10447632;28;20885;-61
2024/03/04 17:31:28;;;;;;;12.70;3.08;;;;;;;18.05;62.12;101001.78;10438838;28;20600;-59
2024/03/04 17:36:36;;;;;;;25.23;5.80;;;;;;;18.00;61.55;101006.44;10437195;28;20025;-63
2024/03/04 17:41:37;;;;;;;40.90;4.53;;;;;;;17.87;61.58;101012.44;10446530;28;20275;-64
2024/03/04 17:46:44;;;;;;;22.17;3.03;;;;;;;17.88;61.31;101022.91;10447580;28;20029;-63
2024/03/04 17:51:45;;;;;;;19.92;3.42;;;;;;;17.85;61.21;101022.66;10444087;28;20396;-65
2024/03/04 17:56:45;;;;;;;42.50;5.18;;;;;;;17.72;61.03;101016.88;10445912;28;20032;-65
2024/03/04 18:01:46;;;;;;;27.92;4.68;;;;;;;17.68;61.93;101028.44;10446705;28;20017;-65
2024/03/04 18:06:46;;;;;;;26.77;3.78;;;;;;;17.67;62.23;101024.94;10447752;28;20067;-65
2024/03/04 18:11:47;;;;;;;20.57;4.50;;;;;;;17.58;60.78;101028.50;10448932;28;20494;-65
2024/03/04 18:16:47;;;;;;;11.10;2.40;;;;;;;17.51;61.23;101034.97;10455942;28;20275;-64
2024/03/04 18:21:47;;;;;;;12.20;2.70;;;;;;;17.52;61.44;101043.81;10455323;28;20404;-64
2024/03/04 18:26:48;;;;;;;13.27;3.17;;;;;;;17.50;61.69;101041.41;10455055;28;20299;-65
2024/03/04 18:31:48;;;;;;;10.68;3.28;;;;;;;17.48;60.76;101046.25;10454984;28;20638;-66
2024/03/04 18:36:50;;;;;;;12.80;2.20;;;;;;;17.56;59.71;101052.91;10450446;28;20025;-64
2024/03/04 18:41:50;;;;;;;11.95;2.58;;;;;;;17.58;59.91;101044.59;10450242;28;20091;-64
2024/03/04 18:46:50;;;;;;;10.03;3.10;;;;;;;17.60;60.05;101047.78;10448808;28;20043;-64
2024/03/04 18:51:52;;;;;;;10.70;2.17;;;;;;;17.61;59.63;101052.88;10448319;28;20272;-65
2024/03/04 18:56:53;;;;;;;9.95;2.35;;;;;;;17.66;58.49;101058.22;10432583;28;20290;-63
2024/03/04 19:01:53;;;;;;;7.73;2.80;;;;;;;17.68;59.38;101055.25;10448666;28;20366;-65
2024/03/04 19:06:54;;;;;;;13.05;2.55;;;;;;;17.78;57.84;101055.19;10449261;28;20330;-64
2024/03/04 19:11:54;;;;;;;8.13;2.28;;;;;;;17.82;59.14;101054.34;10446643;28;20116;-64
2024/03/04 19:16:54;;;;;;;8.55;2.15;;;;;;;17.85;57.80;101062.91;10447200;28;20035;-63
2024/03/04 19:21:55;;;;;;;8.40;2.57;;;;;;;17.86;58.43;101067.97;10447674;28;20456;-65
2024/03/04 19:26:57;;;;;;;8.85;2.78;;;;;;;17.88;58.36;101075.72;10428247;28;20378;-65
2024/03/04 19:31:58;;;;;;;7.45;2.00;;;;;;;17.92;58.06;101072.22;10447579;28;20465;-65
2024/03/04 19:36:58;;;;;;;15.77;3.00;;;;;;;17.91;57.90;101076.00;10428500;28;20020;-65
2024/03/04 19:41:58;;;;;;;8.17;2.20;;;;;;;17.80;58.28;101069.13;10447637;28;20041;-64
2024/03/04 19:46:59;;;;;;;5.43;2.50;;;;;;;17.75;58.07;101072.63;10440462;28;20725;-64
2024/03/04 19:52:01;;;;;;;7.03;1.80;;;;;;;17.73;58.00;101080.16;10445639;28;20286;-63
2024/03/04 19:57:01;;;;;;;5.50;1.52;;;;;;;17.65;57.13;101074.59;10446421;28;20049;-64
2024/03/04 20:02:02;;;;;;;6.37;2.63;;;;;;;17.60;57.12;101071.91;10447018;28;20044;-64
2024/03/04 20:07:02;;;;;;;5.40;1.67;;;;;;;17.59;58.34;101073.00;10447004;28;20295;-64
2024/03/04 20:12:03;;;;;;;3.05;1.60;;;;;;;17.53;58.07;101078.41;10444550;28;20063;-64
2024/03/04 20:17:04;;;;;;;7.68;1.88;;;;;;;17.50;58.00;101081.63;10448513;28;20111;-64
2024/03/04 20:22:06;;;;;;;7.22;1.45;;;;;;;17.47;56.94;101082.19;10448332;28;20055;-64
2024/03/04 20:27:06;;;;;;;5.35;1.30;;;;;;;17.45;58.05;101080.88;10449641;28;20082;-64
2024/03/04 20:32:06;;;;;;;4.43;1.30;;;;;;;17.40;57.44;101084.38;10449065;28;20029;-64
2024/03/04 20:37:07;;;;;;;5.00;1.40;;;;;;;17.41;57.13;101082.53;10449009;28;20548;-64
2024/03/04 20:42:07;;;;;;;5.20;1.40;;;;;;;17.40;57.85;101080.91;10447737;28;20045;-64
2024/03/04 20:47:07;;;;;;;2.53;1.00;;;;;;;17.36;57.64;101075.31;10449457;28;20804;-64
2024/03/04 20:52:08;;;;;;;3.43;1.67;;;;;;;17.31;58.43;101088.75;10448270;28;20271;-64
2024/03/04 20:57:08;;;;;;;3.22;1.27;;;;;;;17.26;58.08;101088.75;10446864;28;20275;-64
2024/03/04 21:02:09;;;;;;;3.77;1.10;;;;;;;17.25;58.99;101093.31;10447799;28;20067;-64
2024/03/04 21:07:09;;;;;;;1.63;0.82;;;;;;;17.22;57.70;101093.88;10443614;28;20353;-64
2024/03/04 21:12:09;;;;;;;4.13;1.27;;;;;;;17.21;58.83;101088.81;10459092;28;20075;-64
2024/03/04 21:17:09;;;;;;;3.37;1.50;;;;;;;17.18;59.20;101092.84;10430541;28;20648;-64
2024/03/04 21:22:10;;;;;;;10.10;1.60;;;;;;;17.17;58.17;101085.09;10448946;28;20079;-63
2024/03/04 21:27:10;;;;;;;3.50;1.23;;;;;;;17.15;58.44;101081.84;10443616;28;20819;-64
2024/03/04 21:32:11;;;;;;;3.17;0.80;;;;;;;17.22;57.44;101075.13;10447727;28;20028;-63
2024/03/04 21:37:11;;;;;;;2.40;1.52;;;;;;;17.19;58.02;101077.56;10445068;28;20287;-64
2024/03/04 21:42:12;;;;;;;3.88;1.42;;;;;;;17.15;57.97;101077.28;10448171;28;20104;-64
2024/03/04 21:47:12;;;;;;;2.73;1.03;;;;;;;17.13;58.60;101076.78;10447329;28;20025;-64
2024/03/04 21:52:17;;;;;;;1.90;0.90;;;;;;;17.18;56.33;101084.81;10446728;28;20271;-64
2024/03/04 21:57:17;;;;;;;2.65;1.08;;;;;;;17.18;57.11;101070.59;10446307;28;20373;-64
2024/03/04 22:02:19;;;;;;;1.85;0.95;;;;;;;17.16;56.98;101081.56;10447762;28;20051;-64
2024/03/04 22:07:19;;;;;;;2.72;1.25;;;;;;;17.19;55.33;101081.03;10446911;28;20028;-64
2024/03/04 22:12:19;;;;;;;2.53;0.80;;;;;;;17.20;55.33;101071.13;10446461;28;20905;-63
2024/03/04 22:17:21;;;;;;;2.95;1.15;;;;;;;17.19;56.06;101070.31;10444367;28;20682;-64
2024/03/04 22:22:21;;;;;;;2.58;1.00;;;;;;;17.21;55.55;101076.22;10445870;28;20021;-63
2024/03/04 22:27:22;;;;;;;3.22;0.90;;;;;;;17.27;54.91;101076.97;10445329;28;20021;-64
2024/03/04 22:32:22;;;;;;;4.83;1.33;;;;;;;17.29;54.65;101066.00;10445940;28;20021;-63
2024/03/04 22:37:22;;;;;;;3.72;0.90;;;;;;;17.28;54.30;101075.09;10445456;28;20263;-64
2024/03/04 22:42:23;;;;;;;1.75;0.82;;;;;;;17.26;55.62;101080.72;10446725;28;20024;-64
2024/03/04 22:47:23;;;;;;;2.07;1.20;;;;;;;17.24;55.31;101082.88;10428349;28;20380;-64
2024/03/04 22:52:23;;;;;;;2.23;0.80;;;;;;;17.24;55.35;101094.41;10446600;28;20276;-63
2024/03/04 22:57:24;;;;;;;1.70;0.90;;;;;;;17.29;55.25;101077.50;10447564;28;20299;-63